Time;durP1;ratioP1;P1;durP2;ratioP2;P2;SDS_P1;SDS_P2;PMS_P1;PMS_P2;Temp;Humidity;BMP_temperature;BMP_pressure;BME280_temperature;BME280_humidity;BME280_pressure;Samples;Min_cycle;Max_cycle;Signal;HPM_P1;HPM_P2
2021/07/14 00:01:39;;;;;;;;;36.25;32.75;;;;;;;;5088599;27;51013;-49
2021/07/14 00:04:04;;;;;;;;;33.00;30.00;;;;;;;;5077668;27;51187;-50
2021/07/14 00:06:29;;;;;;;;;36.25;32.50;;;;;;;;5068776;27;51224;-48
2021/07/14 00:08:55;;;;;;;;;36.00;32.00;;;;;;;;5063007;28;51138;-47
2021/07/14 00:11:20;;;;;;;;;35.00;32.25;;;;;;;;5074635;27;51202;-48
2021/07/14 00:13:59;;;;;;;;;37.00;32.50;;;;;;;;5072670;28;51175;-49
2021/07/14 00:22:08;;;;;;;;;34.75;32.25;;;;;;;;5073784;28;51048;-50
2021/07/14 00:24:34;;;;;;;;;30.50;29.00;;;;;;;;5072709;28;51210;-47
2021/07/14 00:26:59;;;;;;;;;34.75;31.50;;;;;;;;5073522;27;51276;-48
2021/07/14 00:29:24;;;;;;;;;29.25;29.00;;;;;;;;5060489;27;51171;-49
2021/07/14 00:31:50;;;;;;;;;31.50;30.00;;;;;;;;5074507;27;51042;-47
2021/07/14 00:34:15;;;;;;;;;38.25;32.75;;;;;;;;5072996;27;51277;-47
2021/07/14 00:36:40;;;;;;;;;40.25;34.75;;;;;;;;5074574;27;51074;-49
2021/07/14 00:39:05;;;;;;;;;33.50;30.75;;;;;;;;5059510;27;52158;-51
2021/07/14 00:41:30;;;;;;;;;32.25;31.00;;;;;;;;5074594;27;50995;-48
2021/07/14 00:43:56;;;;;;;;;39.00;33.00;;;;;;;;5065424;27;51087;-49
2021/07/14 00:46:25;;;;;;;;;32.00;30.25;;;;;;;;5074591;27;50911;-48
2021/07/14 00:48:51;;;;;;;;;35.00;32.50;;;;;;;;5072905;27;52092;-49
2021/07/14 00:51:17;;;;;;;;;42.75;35.75;;;;;;;;5073686;28;52236;-50
2021/07/14 00:53:43;;;;;;;;;38.50;33.75;;;;;;;;5065712;27;50831;-49
2021/07/14 00:56:08;;;;;;;;;39.25;33.50;;;;;;;;5074259;27;51405;-50
2021/07/14 00:58:33;;;;;;;;;40.75;35.75;;;;;;;;5072255;28;51941;-51
2021/07/14 01:00:59;;;;;;;;;39.75;34.50;;;;;;;;5073897;27;52269;-49
2021/07/14 01:03:29;;;;;;;;;48.75;41.50;;;;;;;;5073265;27;51058;-49
2021/07/14 01:05:54;;;;;;;;;32.75;30.75;;;;;;;;5073353;27;51302;-48
2021/07/14 01:08:27;;;;;;;;;34.00;31.00;;;;;;;;5071310;27;51393;-51
2021/07/14 01:11:06;;;;;;;;;37.50;33.50;;;;;;;;5073672;27;51098;-50
2021/07/14 01:13:36;;;;;;;;;30.75;30.25;;;;;;;;5073974;28;50929;-50
2021/07/14 01:16:01;;;;;;;;;29.25;27.50;;;;;;;;5072721;27;51113;-50
2021/07/14 01:18:27;;;;;;;;;32.75;31.00;;;;;;;;5070791;27;51121;-50
2021/07/14 01:21:00;;;;;;;;;27.50;27.00;;;;;;;;5073708;27;51067;-50
2021/07/14 01:23:35;;;;;;;;;29.25;26.50;;;;;;;;5066017;28;51938;-49
2021/07/14 01:26:04;;;;;;;;;29.75;28.75;;;;;;;;5070674;28;51299;-48
2021/07/14 01:28:30;;;;;;;;;30.00;28.25;;;;;;;;5061877;28;51830;-48
2021/07/14 01:30:57;;;;;;;;;27.50;25.75;;;;;;;;5069968;28;52067;-51
2021/07/14 01:33:24;;;;;;;;;22.25;22.00;;;;;;;;5072554;27;51068;-50
2021/07/14 01:35:52;;;;;;;;;26.00;25.75;;;;;;;;5073433;27;51338;-49
2021/07/14 01:38:18;;;;;;;;;28.00;26.00;;;;;;;;5070558;27;53119;-50
2021/07/14 01:40:45;;;;;;;;;25.50;24.50;;;;;;;;5072930;27;51095;-49
2021/07/14 01:43:10;;;;;;;;;24.50;24.50;;;;;;;;5073493;27;50961;-48
2021/07/14 01:45:37;;;;;;;;;21.75;21.00;;;;;;;;5073355;27;50957;-49
2021/07/14 01:48:03;;;;;;;;;26.00;23.00;;;;;;;;5070356;27;51620;-48
2021/07/14 01:50:29;;;;;;;;;19.50;17.00;;;;;;;;5072893;27;51187;-48
2021/07/14 01:52:55;;;;;;;;;22.00;21.50;;;;;;;;5072753;27;51113;-49
2021/07/14 01:55:21;;;;;;;;;25.75;23.25;;;;;;;;5072021;28;51256;-48
2021/07/14 01:57:46;;;;;;;;;16.67;16.67;;;;;;;;5071637;27;51038;-52
2021/07/14 02:00:12;;;;;;;;;15.33;15.33;;;;;;;;5071688;28;51057;-48
2021/07/14 02:02:43;;;;;;;;;18.00;17.33;;;;;;;;5073118;27;51195;-51
2021/07/14 02:05:08;;;;;;;;;16.00;15.67;;;;;;;;5073258;27;50880;-50
2021/07/14 02:07:34;;;;;;;;;15.33;15.00;;;;;;;;5066314;27;51148;-49
2021/07/14 02:10:00;;;;;;;;;14.00;13.00;;;;;;;;5071205;28;51150;-47
2021/07/14 02:12:29;;;;;;;;;15.00;13.67;;;;;;;;5071963;27;50905;-48
2021/07/14 02:15:04;;;;;;;;;15.00;14.00;;;;;;;;5072995;27;51099;-47
2021/07/14 02:17:32;;;;;;;;;13.33;13.33;;;;;;;;5065299;27;51174;-50
2021/07/14 02:20:09;;;;;;;;;12.00;11.33;;;;;;;;5072883;27;51334;-50
2021/07/14 02:22:34;;;;;;;;;14.33;14.33;;;;;;;;5070863;28;50950;-47
2021/07/14 02:24:59;;;;;;;;;13.33;12.33;;;;;;;;5072716;28;51316;-48
2021/07/14 02:27:25;;;;;;;;;13.00;12.33;;;;;;;;5071148;28;51078;-47
2021/07/14 02:29:50;;;;;;;;;11.67;11.00;;;;;;;;5060528;28;50993;-48
2021/07/14 02:32:18;;;;;;;;;10.67;10.67;;;;;;;;5068243;27;51008;-49
2021/07/14 02:34:43;;;;;;;;;10.00;10.00;;;;;;;;5062466;28;51095;-49
2021/07/14 02:37:10;;;;;;;;;12.67;12.33;;;;;;;;5072137;27;51687;-49
2021/07/14 02:39:36;;;;;;;;;12.67;11.67;;;;;;;;5061679;27;51145;-49
2021/07/14 02:42:05;;;;;;;;;10.67;10.67;;;;;;;;5072488;27;50892;-49
2021/07/14 02:44:36;;;;;;;;;11.33;10.67;;;;;;;;5071020;28;51229;-49
2021/07/14 02:47:02;;;;;;;;;10.67;10.00;;;;;;;;5072276;27;51685;-49
2021/07/14 02:49:30;;;;;;;;;11.33;11.33;;;;;;;;5069570;27;51117;-49
2021/07/14 02:51:55;;;;;;;;;11.00;10.00;;;;;;;;5071067;27;51193;-50
2021/07/14 02:54:22;;;;;;;;;8.67;8.67;;;;;;;;5068731;27;50932;-51
2021/07/14 02:56:50;;;;;;;;;9.33;9.33;;;;;;;;5072192;27;52252;-48
2021/07/14 02:59:18;;;;;;;;;9.33;9.33;;;;;;;;5071093;28;50949;-49
2021/07/14 03:01:43;;;;;;;;;9.00;9.00;;;;;;;;5072249;27;50882;-50
2021/07/14 03:04:10;;;;;;;;;11.67;11.33;;;;;;;;5070584;27;51288;-49
2021/07/14 03:06:38;;;;;;;;;12.00;11.00;;;;;;;;5072071;27;52291;-48
2021/07/14 03:09:04;;;;;;;;;10.67;10.33;;;;;;;;5069845;28;50992;-48
2021/07/14 03:11:32;;;;;;;;;10.33;10.33;;;;;;;;5072093;27;51071;-49
2021/07/14 03:13:57;;;;;;;;;8.67;8.67;;;;;;;;5067398;27;51352;-52
2021/07/14 03:16:24;;;;;;;;;11.00;11.00;;;;;;;;5069309;28;53016;-53
2021/07/14 03:18:50;;;;;;;;;11.67;10.00;;;;;;;;5068799;27;51135;-52
2021/07/14 03:21:16;;;;;;;;;10.00;9.67;;;;;;;;5071901;27;50988;-49
2021/07/14 03:23:42;;;;;;;;;10.00;9.00;;;;;;;;5068119;28;51271;-48
2021/07/14 03:26:08;;;;;;;;;11.67;11.00;;;;;;;;5071529;27;51779;-52
2021/07/14 03:28:34;;;;;;;;;10.00;9.00;;;;;;;;5070282;27;51062;-52
2021/07/14 03:31:03;;;;;;;;;9.00;8.67;;;;;;;;5071040;27;51073;-49
2021/07/14 03:33:31;;;;;;;;;8.00;8.00;;;;;;;;5070067;27;51364;-48
2021/07/14 03:35:58;;;;;;;;;9.00;8.00;;;;;;;;5049831;28;52774;-50
2021/07/14 03:38:23;;;;;;;;;8.00;8.00;;;;;;;;5065103;28;51032;-49
2021/07/14 03:40:50;;;;;;;;;8.00;7.33;;;;;;;;5075133;27;51083;-48
2021/07/14 03:43:15;;;;;;;;;8.00;7.00;;;;;;;;5074091;28;50882;-51
2021/07/14 03:45:41;;;;;;;;;7.67;7.33;;;;;;;;5073147;27;51971;-50
2021/07/14 03:48:07;;;;;;;;;9.33;9.00;;;;;;;;5073789;27;51544;-47
2021/07/14 03:50:33;;;;;;;;;9.00;8.33;;;;;;;;5075257;27;51077;-47
2021/07/14 03:52:58;;;;;;;;;9.00;9.00;;;;;;;;5074947;27;51091;-50
2021/07/14 03:55:23;;;;;;;;;9.33;9.33;;;;;;;;5072795;27;51070;-48
2021/07/14 03:57:49;;;;;;;;;6.33;6.33;;;;;;;;5073849;27;50874;-49
2021/07/14 04:00:14;;;;;;;;;9.67;8.67;;;;;;;;5074202;27;51072;-50
2021/07/14 04:02:43;;;;;;;;;8.00;8.00;;;;;;;;5074135;27;51283;-49
2021/07/14 04:05:08;;;;;;;;;7.00;7.00;;;;;;;;5074767;27;52337;-51
2021/07/14 04:07:34;;;;;;;;;8.33;8.33;;;;;;;;5072006;27;51297;-50
2021/07/14 04:10:01;;;;;;;;;9.00;9.00;;;;;;;;5060444;27;51036;-48
2021/07/14 04:12:26;;;;;;;;;7.33;7.33;;;;;;;;5075195;27;51275;-50
2021/07/14 04:14:52;;;;;;;;;11.00;10.00;;;;;;;;5073041;28;52688;-50
2021/07/14 04:17:17;;;;;;;;;9.00;8.00;;;;;;;;5066087;27;51176;-48
2021/07/14 04:19:43;;;;;;;;;10.00;9.00;;;;;;;;5070392;27;51092;-48
2021/07/14 04:22:09;;;;;;;;;10.00;10.00;;;;;;;;5074949;27;50869;-48
2021/07/14 04:24:34;;;;;;;;;10.00;9.33;;;;;;;;5074255;27;51099;-51
2021/07/14 04:26:59;;;;;;;;;8.67;8.67;;;;;;;;5074554;27;50955;-47
2021/07/14 04:29:25;;;;;;;;;9.33;9.33;;;;;;;;5065040;27;51042;-48
2021/07/14 04:31:50;;;;;;;;;8.67;8.67;;;;;;;;5074859;27;51180;-49
2021/07/14 04:34:15;;;;;;;;;7.67;7.67;;;;;;;;5074274;28;51062;-47
2021/07/14 04:36:43;;;;;;;;;10.00;9.67;;;;;;;;5070648;27;51090;-50
2021/07/14 04:39:09;;;;;;;;;8.00;8.00;;;;;;;;5070950;27;51065;-50
2021/07/14 04:41:35;;;;;;;;;8.67;8.67;;;;;;;;5066206;27;51094;-47
2021/07/14 04:44:03;;;;;;;;;10.00;9.67;;;;;;;;5074084;28;51939;-49
2021/07/14 04:46:28;;;;;;;;;8.67;8.67;;;;;;;;5074515;27;50950;-51
2021/07/14 04:48:53;;;;;;;;;8.33;8.33;;;;;;;;5072641;27;51229;-51
2021/07/14 04:51:20;;;;;;;;;8.00;8.00;;;;;;;;5074435;27;50989;-51
2021/07/14 04:53:45;;;;;;;;;9.00;8.33;;;;;;;;5073587;27;51156;-49
2021/07/14 04:56:10;;;;;;;;;9.00;8.00;;;;;;;;5072648;28;50958;-50
2021/07/14 04:58:35;;;;;;;;;10.00;9.00;;;;;;;;5068980;28;50975;-50
2021/07/14 05:01:00;;;;;;;;;11.00;10.33;;;;;;;;5074455;27;51017;-50
2021/07/14 05:03:26;;;;;;;;;10.00;9.67;;;;;;;;5073719;27;51332;-51
2021/07/14 05:05:51;;;;;;;;;12.00;11.67;;;;;;;;5073240;27;51103;-49
2021/07/14 05:08:16;;;;;;;;;12.33;12.00;;;;;;;;5067907;27;51110;-50
2021/07/14 05:10:42;;;;;;;;;11.33;11.33;;;;;;;;5065346;28;51141;-51
2021/07/14 05:13:07;;;;;;;;;12.00;11.33;;;;;;;;5073176;28;52167;-49
2021/07/14 05:15:34;;;;;;;;;13.00;12.33;;;;;;;;5064913;28;51118;-51
2021/07/14 05:17:59;;;;;;;;;11.33;11.00;;;;;;;;5070048;27;50995;-51
2021/07/14 05:20:24;;;;;;;;;10.33;10.00;;;;;;;;5072725;28;51053;-48
2021/07/14 05:22:49;;;;;;;;;14.00;14.00;;;;;;;;5072398;28;51295;-50
2021/07/14 05:25:15;;;;;;;;;12.00;12.00;;;;;;;;5073777;27;51072;-48
2021/07/14 05:27:41;;;;;;;;;15.00;14.00;;;;;;;;5071444;27;50953;-49
2021/07/14 05:30:07;;;;;;;;;15.00;13.00;;;;;;;;5071690;28;51077;-51
2021/07/14 05:32:32;;;;;;;;;13.67;13.00;;;;;;;;5072610;27;51959;-48
2021/07/14 05:34:58;;;;;;;;;15.67;14.00;;;;;;;;5073389;28;51113;-51
2021/07/14 05:37:23;;;;;;;;;16.33;15.00;;;;;;;;5072797;27;51166;-51
2021/07/14 05:39:48;;;;;;;;;14.33;14.00;;;;;;;;5065774;27;51046;-51
2021/07/14 05:42:13;;;;;;;;;13.67;13.00;;;;;;;;5072763;27;51107;-51
2021/07/14 05:44:38;;;;;;;;;13.33;12.33;;;;;;;;5072046;27;51162;-50
2021/07/14 05:47:04;;;;;;;;;15.33;15.33;;;;;;;;5073285;28;51049;-51
2021/07/14 05:49:29;;;;;;;;;16.33;13.67;;;;;;;;5068461;28;51398;-49
2021/07/14 05:51:54;;;;;;;;;15.33;15.33;;;;;;;;5072668;27;51936;-49
2021/07/14 05:54:20;;;;;;;;;15.67;15.00;;;;;;;;5070320;27;51045;-48
2021/07/14 05:56:45;;;;;;;;;12.00;12.00;;;;;;;;5073111;27;50922;-49
2021/07/14 05:59:11;;;;;;;;;13.00;13.00;;;;;;;;5070066;27;51174;-49
2021/07/14 06:01:37;;;;;;;;;12.67;12.33;;;;;;;;5072166;28;50995;-51
2021/07/14 06:04:02;;;;;;;;;12.00;12.00;;;;;;;;5072205;27;51025;-50
2021/07/14 06:06:28;;;;;;;;;12.00;12.00;;;;;;;;5071729;28;51069;-49
2021/07/14 06:08:54;;;;;;;;;12.33;12.33;;;;;;;;5068728;27;51400;-51
2021/07/14 06:11:19;;;;;;;;;14.33;14.00;;;;;;;;5072518;27;51030;-50
2021/07/14 06:13:44;;;;;;;;;11.00;10.00;;;;;;;;5071930;27;50986;-51
2021/07/14 06:16:09;;;;;;;;;10.33;10.33;;;;;;;;5072833;27;50974;-52
2021/07/14 06:18:35;;;;;;;;;9.00;9.00;;;;;;;;5064915;27;51323;-50
2021/07/14 06:21:01;;;;;;;;;10.00;9.67;;;;;;;;5055655;28;52046;-50
2021/07/14 06:23:26;;;;;;;;;9.00;9.00;;;;;;;;5069700;27;50930;-48
2021/07/14 06:25:51;;;;;;;;;12.33;11.33;;;;;;;;5073001;28;51130;-48
2021/07/14 06:28:16;;;;;;;;;8.33;8.00;;;;;;;;5072951;27;51040;-51
2021/07/14 06:30:47;;;;;;;;;18.00;17.25;;;;;;;;5068450;27;51101;-50
2021/07/14 06:33:13;;;;;;;;;9.00;9.00;;;;;;;;5068952;27;50919;-48
2021/07/14 06:35:38;;;;;;;;;10.00;10.00;;;;;;;;5069982;28;51064;-50
2021/07/14 06:38:04;;;;;;;;;9.67;9.00;;;;;;;;5071336;28;51287;-49
2021/07/14 06:40:30;;;;;;;;;10.00;9.67;;;;;;;;5072549;27;52165;-50
2021/07/14 06:42:56;;;;;;;;;10.67;10.33;;;;;;;;5068626;28;51062;-51
2021/07/14 06:45:23;;;;;;;;;9.33;9.33;;;;;;;;5058869;27;50888;-51
2021/07/14 06:47:49;;;;;;;;;9.33;9.33;;;;;;;;5063430;27;50969;-50
2021/07/14 06:50:14;;;;;;;;;8.33;8.00;;;;;;;;5069359;27;51621;-51
2021/07/14 06:52:40;;;;;;;;;8.33;8.33;;;;;;;;5070627;27;51211;-51
2021/07/14 06:55:06;;;;;;;;;12.00;11.00;;;;;;;;5071406;28;51219;-52
2021/07/14 06:57:31;;;;;;;;;10.33;10.00;;;;;;;;5072445;27;51005;-51
2021/07/14 06:59:56;;;;;;;;;9.00;9.00;;;;;;;;5056762;27;52067;-52
2021/07/14 07:02:22;;;;;;;;;8.00;8.00;;;;;;;;5070630;28;51087;-52
2021/07/14 07:04:47;;;;;;;;;8.00;8.00;;;;;;;;5069230;27;51130;-52
2021/07/14 07:07:12;;;;;;;;;10.00;10.00;;;;;;;;5067135;27;51121;-49
2021/07/14 07:09:37;;;;;;;;;10.33;9.67;;;;;;;;5074554;27;52977;-52
2021/07/14 07:12:03;;;;;;;;;10.00;10.00;;;;;;;;5072192;27;51006;-49
2021/07/14 07:14:28;;;;;;;;;10.67;10.67;;;;;;;;5074768;28;50965;-51
2021/07/14 07:16:54;;;;;;;;;9.00;8.33;;;;;;;;5066623;27;51027;-48
2021/07/14 07:19:19;;;;;;;;;10.67;10.67;;;;;;;;5070558;28;51093;-52
2021/07/14 07:21:44;;;;;;;;;12.00;11.67;;;;;;;;5076111;27;50986;-50
2021/07/14 07:24:09;;;;;;;;;12.33;11.67;;;;;;;;5074277;27;51120;-49
2021/07/14 07:26:35;;;;;;;;;9.67;9.33;;;;;;;;5067263;28;51231;-51
2021/07/14 07:29:06;;;;;;;;;12.00;12.00;;;;;;;;5061584;28;52079;-50
2021/07/14 07:31:32;;;;;;;;;14.67;12.33;;;;;;;;5066446;27;51203;-48
2021/07/14 07:33:57;;;;;;;;;12.00;11.33;;;;;;;;5075551;27;51121;-51
2021/07/14 07:36:22;;;;;;;;;14.00;12.33;;;;;;;;5075983;28;51068;-50
2021/07/14 07:38:47;;;;;;;;;10.33;10.33;;;;;;;;5074256;27;52429;-52
2021/07/14 07:41:13;;;;;;;;;9.33;9.33;;;;;;;;5077429;27;50928;-51
2021/07/14 07:43:38;;;;;;;;;14.00;11.67;;;;;;;;5070575;28;51084;-49
2021/07/14 07:46:04;;;;;;;;;12.33;10.33;;;;;;;;5066924;27;51317;-49
2021/07/14 07:48:29;;;;;;;;;10.33;10.33;;;;;;;;5066927;28;51958;-50
2021/07/14 07:50:54;;;;;;;;;9.00;9.00;;;;;;;;5064962;28;51059;-49
2021/07/14 07:53:21;;;;;;;;;9.67;9.00;;;;;;;;5072631;27;51794;-51
2021/07/14 07:55:47;;;;;;;;;11.00;9.67;;;;;;;;5074173;27;51142;-51
2021/07/14 07:58:12;;;;;;;;;8.33;8.33;;;;;;;;5069614;27;52117;-50
2021/07/14 08:00:37;;;;;;;;;10.33;10.33;;;;;;;;5069987;28;50995;-50
2021/07/14 08:03:03;;;;;;;;;8.67;7.33;;;;;;;;5075153;27;50860;-49
2021/07/14 08:05:29;;;;;;;;;8.67;8.67;;;;;;;;5075689;27;51083;-50
2021/07/14 08:07:54;;;;;;;;;9.33;9.33;;;;;;;;5074346;27;51039;-48
2021/07/14 08:10:20;;;;;;;;;9.33;8.00;;;;;;;;5074973;27;50943;-52
2021/07/14 08:12:45;;;;;;;;;6.00;6.00;;;;;;;;5074892;27;50838;-48
2021/07/14 08:15:10;;;;;;;;;8.00;7.00;;;;;;;;5075541;27;51115;-50
2021/07/14 08:17:39;;;;;;;;;9.00;9.00;;;;;;;;5067905;27;51166;-50
2021/07/14 08:20:06;;;;;;;;;7.00;6.00;;;;;;;;5063667;27;51258;-49
2021/07/14 08:22:31;;;;;;;;;7.00;7.00;;;;;;;;5062602;27;51373;-47
2021/07/14 08:24:56;;;;;;;;;6.33;6.33;;;;;;;;5056770;28;51112;-47
2021/07/14 08:27:24;;;;;;;;;7.00;7.00;;;;;;;;5055746;28;51903;-51
2021/07/14 08:29:49;;;;;;;;;7.00;7.00;;;;;;;;5065172;28;51158;-51
2021/07/14 08:32:15;;;;;;;;;6.33;6.33;;;;;;;;5068472;27;50995;-53
2021/07/14 08:34:40;;;;;;;;;6.67;6.67;;;;;;;;5074614;27;51312;-49
2021/07/14 08:37:06;;;;;;;;;6.00;6.00;;;;;;;;5074236;27;51296;-50
2021/07/14 08:39:31;;;;;;;;;8.67;8.67;;;;;;;;5074084;27;51084;-49
2021/07/14 08:41:59;;;;;;;;;7.67;7.67;;;;;;;;5073658;27;51124;-52
2021/07/14 08:44:25;;;;;;;;;12.67;11.00;;;;;;;;5064868;28;51207;-50
2021/07/14 08:46:50;;;;;;;;;9.33;8.33;;;;;;;;5061237;27;51889;-50
2021/07/14 08:49:16;;;;;;;;;7.67;7.67;;;;;;;;5064338;28;52522;-49
2021/07/14 08:51:42;;;;;;;;;8.00;7.33;;;;;;;;5073431;27;51109;-51
2021/07/14 08:54:07;;;;;;;;;6.67;6.00;;;;;;;;5063640;28;51364;-48
2021/07/14 08:56:33;;;;;;;;;7.67;7.67;;;;;;;;5067215;27;51218;-48
2021/07/14 08:58:59;;;;;;;;;6.67;6.67;;;;;;;;5064568;27;51205;-49
2021/07/14 09:01:24;;;;;;;;;8.00;7.33;;;;;;;;5073445;28;50958;-48
2021/07/14 09:03:49;;;;;;;;;6.00;6.00;;;;;;;;5067581;27;51035;-50
2021/07/14 09:06:14;;;;;;;;;6.33;6.33;;;;;;;;5061057;27;52006;-52
2021/07/14 09:08:40;;;;;;;;;7.00;7.00;;;;;;;;5060846;27;51096;-51
2021/07/14 09:11:05;;;;;;;;;6.33;6.33;;;;;;;;5064239;28;51282;-48
2021/07/14 09:13:32;;;;;;;;;8.00;8.00;;;;;;;;5058134;28;51008;-55
2021/07/14 09:15:57;;;;;;;;;6.33;6.00;;;;;;;;5060421;27;52659;-50
2021/07/14 09:18:24;;;;;;;;;7.00;7.00;;;;;;;;5071630;28;51033;-47
2021/07/14 09:20:49;;;;;;;;;7.33;7.00;;;;;;;;5073764;27;51083;-47
2021/07/14 09:23:20;;;;;;;;;8.33;7.33;;;;;;;;5072956;27;51304;-47
2021/07/14 09:25:55;;;;;;;;;6.33;5.33;;;;;;;;5073023;27;52394;-47
2021/07/14 09:28:28;;;;;;;;;5.33;5.33;;;;;;;;5073511;27;50874;-48
2021/07/14 09:30:58;;;;;;;;;6.33;6.00;;;;;;;;5071669;27;51048;-48
2021/07/14 09:33:23;;;;;;;;;7.00;6.00;;;;;;;;5073971;27;51172;-49
2021/07/14 09:35:50;;;;;;;;;7.00;6.67;;;;;;;;5069981;27;51623;-53
2021/07/14 09:38:15;;;;;;;;;6.67;6.33;;;;;;;;5072974;27;51108;-49
2021/07/14 09:40:41;;;;;;;;;6.67;6.00;;;;;;;;5073131;27;51056;-50
2021/07/14 09:43:11;;;;;;;;;6.00;6.00;;;;;;;;5072036;28;51095;-49
2021/07/14 09:46:05;;;;;;;;;7.00;6.00;;;;;;;;5072542;27;52101;-50
2021/07/14 09:48:32;;;;;;;;;6.00;5.33;;;;;;;;5067422;27;51098;-50
2021/07/14 09:50:58;;;;;;;;;6.00;6.00;;;;;;;;5073155;27;50997;-52
2021/07/14 09:53:28;;;;;;;;;8.33;7.00;;;;;;;;5072369;27;51050;-50
2021/07/14 09:55:55;;;;;;;;;5.00;5.00;;;;;;;;5072475;27;52448;-51
2021/07/14 09:58:20;;;;;;;;;8.00;8.00;;;;;;;;5072516;27;51042;-48
2021/07/14 10:00:50;;;;;;;;;7.67;7.00;;;;;;;;5072929;27;51173;-51
2021/07/14 10:03:17;;;;;;;;;7.33;7.33;;;;;;;;5073021;27;51180;-48
2021/07/14 10:05:42;;;;;;;;;6.00;6.00;;;;;;;;5072714;28;50954;-49
2021/07/14 10:08:18;;;;;;;;;7.33;7.00;;;;;;;;5072236;27;50870;-53
2021/07/14 10:10:44;;;;;;;;;8.33;7.33;;;;;;;;5068674;27;51035;-48
2021/07/14 10:13:10;;;;;;;;;6.00;6.00;;;;;;;;5067727;28;51017;-50
2021/07/14 10:15:35;;;;;;;;;7.33;6.67;;;;;;;;5072542;27;51896;-50
2021/07/14 10:18:01;;;;;;;;;7.00;6.00;;;;;;;;5072071;28;51288;-49
2021/07/14 10:20:29;;;;;;;;;7.67;7.00;;;;;;;;5070661;27;51162;-48
2021/07/14 10:22:56;;;;;;;;;8.33;7.33;;;;;;;;5071160;28;51342;-51
2021/07/14 10:25:23;;;;;;;;;13.00;13.00;;;;;;;;5067642;28;53458;-51
2021/07/14 10:27:49;;;;;;;;;7.67;6.00;;;;;;;;5071455;28;50878;-51
2021/07/14 10:30:15;;;;;;;;;6.00;6.00;;;;;;;;5072157;27;50915;-51
2021/07/14 10:32:41;;;;;;;;;7.00;7.00;;;;;;;;5068067;28;51237;-48
2021/07/14 10:35:08;;;;;;;;;8.33;8.00;;;;;;;;5071075;27;52275;-49
2021/07/14 10:37:33;;;;;;;;;8.00;8.00;;;;;;;;5069337;28;51059;-50
2021/07/14 10:39:59;;;;;;;;;9.33;9.33;;;;;;;;5070068;27;50978;-50
2021/07/14 10:42:24;;;;;;;;;8.00;6.00;;;;;;;;5070549;27;51204;-49
2021/07/14 10:44:49;;;;;;;;;7.00;7.00;;;;;;;;5049754;28;53593;-49
2021/07/14 10:47:15;;;;;;;;;6.00;6.00;;;;;;;;5069169;28;51005;-49
2021/07/14 10:49:41;;;;;;;;;7.00;6.00;;;;;;;;5072104;28;51024;-51
2021/07/14 10:52:07;;;;;;;;;7.00;7.00;;;;;;;;5069755;28;50937;-52
2021/07/14 10:54:32;;;;;;;;;5.67;5.67;;;;;;;;5071192;28;52397;-50
2021/07/14 10:57:01;;;;;;;;;9.00;8.00;;;;;;;;5071128;27;50942;-49
2021/07/14 10:59:26;;;;;;;;;5.33;5.33;;;;;;;;5071709;27;50968;-50
2021/07/14 11:01:52;;;;;;;;;7.00;6.00;;;;;;;;5071565;28;51123;-49
2021/07/14 11:04:17;;;;;;;;;6.00;6.00;;;;;;;;5071310;27;52315;-47
2021/07/14 11:07:07;;;;;;;;;9.33;7.67;;;;;;;;5071154;27;50973;-48
2021/07/14 11:09:33;;;;;;;;;7.33;7.00;;;;;;;;5071815;27;51053;-48
2021/07/14 11:11:58;;;;;;;;;7.00;7.00;;;;;;;;5071610;27;51132;-49
2021/07/14 11:14:33;;;;;;;;;7.33;6.67;;;;;;;;5071309;27;51067;-51
2021/07/14 11:17:01;;;;;;;;;11.00;10.00;;;;;;;;5071378;27;51028;-52
2021/07/14 11:19:45;;;;;;;;;9.00;9.00;;;;;;;;5071282;27;51121;-48
2021/07/14 11:22:11;;;;;;;;;9.00;8.67;;;;;;;;5070923;28;51001;-49
2021/07/14 11:24:36;;;;;;;;;7.33;7.00;;;;;;;;5069397;28;51180;-48
2021/07/14 11:27:31;;;;;;;;;7.00;7.00;;;;;;;;5057645;27;51071;-52
2021/07/14 11:30:02;;;;;;;;;13.00;13.00;;;;;;;;5051737;28;51113;-52
2021/07/14 11:32:34;;;;;;;;;15.00;12.00;;;;;;;;5069445;28;50887;-48
2021/07/14 11:34:59;;;;;;;;;9.00;8.67;;;;;;;;5071079;27;50986;-52
2021/07/14 11:37:35;;;;;;;;;9.33;8.67;;;;;;;;5070365;28;51140;-50
2021/07/14 11:40:18;;;;;;;;;8.33;8.33;;;;;;;;5071228;27;51000;-52
2021/07/14 11:42:53;;;;;;;;;11.00;11.00;;;;;;;;5070731;27;51231;-50
2021/07/14 11:45:33;;;;;;;;;8.33;8.33;;;;;;;;5070361;27;51101;-51
2021/07/14 11:47:59;;;;;;;;;10.33;9.33;;;;;;;;5062347;28;50987;-52
2021/07/14 11:50:42;;;;;;;;;10.67;10.00;;;;;;;;5070246;27;51277;-52
2021/07/14 11:53:31;;;;;;;;;10.00;8.00;;;;;;;;5070183;27;51129;-48
2021/07/14 11:55:56;;;;;;;;;10.00;9.67;;;;;;;;5070634;27;50987;-49
2021/07/14 11:58:42;;;;;;;;;11.00;11.00;;;;;;;;5070183;27;51015;-51
2021/07/14 12:01:11;;;;;;;;;11.00;11.00;;;;;;;;5073567;28;51112;-52
2021/07/14 12:03:36;;;;;;;;;12.00;12.00;;;;;;;;5074197;28;51391;-52
2021/07/14 12:06:02;;;;;;;;;13.67;13.67;;;;;;;;5073388;27;52249;-51
2021/07/14 12:08:37;;;;;;;;;12.00;11.00;;;;;;;;5073653;27;50887;-49
2021/07/14 12:11:02;;;;;;;;;9.67;9.67;;;;;;;;5073792;27;51129;-50
2021/07/14 12:13:28;;;;;;;;;13.33;13.00;;;;;;;;5072167;28;51550;-49
2021/07/14 12:15:54;;;;;;;;;12.00;12.00;;;;;;;;5072925;28;52173;-50
2021/07/14 12:18:19;;;;;;;;;11.67;11.00;;;;;;;;5073176;27;51039;-49
2021/07/14 12:20:48;;;;;;;;;13.00;13.00;;;;;;;;5073613;27;51081;-50
2021/07/14 12:23:14;;;;;;;;;11.67;11.00;;;;;;;;5073157;27;51007;-49
2021/07/14 12:25:39;;;;;;;;;11.33;11.00;;;;;;;;5073024;27;51121;-49
2021/07/14 12:28:08;;;;;;;;;11.00;11.00;;;;;;;;5072132;28;51235;-51
2021/07/14 12:30:36;;;;;;;;;13.33;13.00;;;;;;;;5073219;28;50975;-49
2021/07/14 12:33:03;;;;;;;;;11.00;10.67;;;;;;;;5073469;27;51127;-49
2021/07/14 12:35:29;;;;;;;;;54.25;45.75;;;;;;;;5072809;28;52840;-48
2021/07/14 12:37:54;;;;;;;;;11.00;11.00;;;;;;;;5072545;27;50993;-48
2021/07/14 12:40:21;;;;;;;;;12.33;11.33;;;;;;;;5073137;27;51085;-50
2021/07/14 12:42:47;;;;;;;;;11.33;11.00;;;;;;;;5071688;28;51340;-53
2021/07/14 12:45:27;;;;;;;;;13.00;12.67;;;;;;;;5072548;28;51069;-50
2021/07/14 12:47:53;;;;;;;;;12.00;12.00;;;;;;;;5072886;28;51012;-49
2021/07/14 12:50:22;;;;;;;;;11.67;11.00;;;;;;;;5072546;28;51083;-51
2021/07/14 12:52:54;;;;;;;;;15.00;13.00;;;;;;;;5072272;27;50970;-51
2021/07/14 12:55:20;;;;;;;;;10.33;10.33;;;;;;;;5072709;27;51356;-47
2021/07/14 12:57:46;;;;;;;;;12.67;12.33;;;;;;;;5071268;28;51028;-52
2021/07/14 13:00:12;;;;;;;;;10.33;10.00;;;;;;;;5072085;27;51223;-52
2021/07/14 13:02:58;;;;;;;;;10.00;9.00;;;;;;;;5072588;27;51291;-53
2021/07/14 13:05:24;;;;;;;;;12.67;11.67;;;;;;;;5072883;27;50889;-51
2021/07/14 13:07:54;;;;;;;;;15.67;15.00;;;;;;;;5072317;27;50934;-51
2021/07/14 13:10:24;;;;;;;;;14.33;13.33;;;;;;;;5072859;27;51137;-51
2021/07/14 13:12:56;;;;;;;;;15.00;15.00;;;;;;;;5072784;27;51019;-52
2021/07/14 13:15:22;;;;;;;;;29.00;28.25;;;;;;;;5072211;27;51817;-48
2021/07/14 13:17:48;;;;;;;;;13.33;12.00;;;;;;;;5072388;28;50812;-54
2021/07/14 13:20:15;;;;;;;;;11.33;11.33;;;;;;;;5072106;27;50968;-50
2021/07/14 13:22:42;;;;;;;;;13.00;12.67;;;;;;;;5072313;27;51361;-49
2021/07/14 13:25:07;;;;;;;;;11.00;10.67;;;;;;;;5072560;27;51119;-50
2021/07/14 13:27:37;;;;;;;;;20.00;19.75;;;;;;;;5065986;27;51480;-56
2021/07/14 13:30:21;;;;;;;;;9.67;9.67;;;;;;;;5072557;27;51086;-51
2021/07/14 13:32:53;;;;;;;;;11.00;10.67;;;;;;;;5072538;28;51497;-50
2021/07/14 13:35:19;;;;;;;;;14.33;14.33;;;;;;;;5071666;27;53610;-53
2021/07/14 13:37:44;;;;;;;;;9.33;9.33;;;;;;;;5071288;27;50979;-50
2021/07/14 13:40:29;;;;;;;;;12.67;12.67;;;;;;;;5071879;28;51129;-52
2021/07/14 13:42:57;;;;;;;;;11.67;11.33;;;;;;;;5071853;27;51346;-52
2021/07/14 13:45:26;;;;;;;;;14.00;13.33;;;;;;;;5071134;28;52102;-52
2021/07/14 13:47:55;;;;;;;;;11.00;10.00;;;;;;;;5071411;28;51055;-51
2021/07/14 13:50:20;;;;;;;;;11.00;11.00;;;;;;;;5071191;27;51132;-52
2021/07/14 13:53:02;;;;;;;;;12.00;12.00;;;;;;;;5071293;27;51049;-52
2021/07/14 13:55:28;;;;;;;;;11.67;11.67;;;;;;;;5069275;28;51183;-51
2021/07/14 13:58:03;;;;;;;;;12.00;12.00;;;;;;;;5069725;28;51174;-51
2021/07/14 14:00:28;;;;;;;;;13.00;12.33;;;;;;;;5071771;27;51113;-50
2021/07/14 14:02:58;;;;;;;;;12.67;12.33;;;;;;;;5071850;27;51116;-48
2021/07/14 14:05:23;;;;;;;;;11.33;11.00;;;;;;;;5071616;27;52380;-49
2021/07/14 14:07:49;;;;;;;;;13.00;13.00;;;;;;;;5071278;28;50898;-51
2021/07/14 14:10:15;;;;;;;;;13.00;13.00;;;;;;;;5070323;28;50970;-53
2021/07/14 14:12:45;;;;;;;;;15.00;13.33;;;;;;;;5070765;28;51369;-49
2021/07/14 14:15:12;;;;;;;;;15.00;15.00;;;;;;;;5070899;28;51939;-53
2021/07/14 14:17:37;;;;;;;;;13.00;13.00;;;;;;;;5071063;27;50938;-50
2021/07/14 14:20:04;;;;;;;;;15.00;14.33;;;;;;;;5070971;27;51552;-49
2021/07/14 14:22:30;;;;;;;;;16.67;16.67;;;;;;;;5070378;27;51113;-49
2021/07/14 14:24:58;;;;;;;;;11.33;11.33;;;;;;;;5070327;27;51069;-52
2021/07/14 14:27:33;;;;;;;;;15.33;15.33;;;;;;;;5070870;27;51052;-49
2021/07/14 14:29:59;;;;;;;;;14.00;14.00;;;;;;;;5071341;27;50928;-50
2021/07/14 14:32:24;;;;;;;;;13.67;13.67;;;;;;;;5071024;27;51239;-52
2021/07/14 14:34:51;;;;;;;;;15.00;14.67;;;;;;;;5069173;28;51276;-53